Time;durP1;ratioP1;P1;durP2;ratioP2;P2;SDS_P1;SDS_P2;PMS_P1;PMS_P2;Temp;Humidity;BMP_temperature;BMP_pressure;BME280_temperature;BME280_humidity;BME280_pressure;Samples;Min_cycle;Max_cycle;Signal;HPM_P1;HPM_P2
2021/01/07 00:01:50;;;;;;;9.80;5.63;;;1.80;95.40;;;;;;5031248;28;20477;-74
2021/01/07 00:04:16;;;;;;;9.13;5.82;;;1.70;95.40;;;;;;5030725;28;20025;-74
2021/01/07 00:06:42;;;;;;;9.93;5.85;;;1.80;95.50;;;;;;5028736;28;20040;-74
2021/01/07 00:09:08;;;;;;;10.27;5.93;;;1.80;95.50;;;;;;5029056;28;20108;-74
2021/01/07 00:11:34;;;;;;;9.80;5.70;;;1.80;95.50;;;;;;5012353;28;20029;-74
2021/01/07 00:14:02;;;;;;;9.48;5.78;;;1.80;95.40;;;;;;5031006;28;20450;-74
2021/01/07 00:16:28;;;;;;;9.63;5.78;;;1.80;95.40;;;;;;5030472;28;20742;-75
2021/01/07 00:18:53;;;;;;;10.85;6.32;;;1.70;95.40;;;;;;5029106;28;20040;-74
2021/01/07 00:21:19;;;;;;;9.88;6.07;;;1.80;95.40;;;;;;5028175;28;20485;-74
2021/01/07 00:23:45;;;;;;;9.90;5.95;;;1.80;95.40;;;;;;5014059;28;20112;-74
2021/01/07 00:26:10;;;;;;;10.43;6.22;;;1.70;95.30;;;;;;5027735;28;20040;-74
2021/01/07 00:28:36;;;;;;;10.95;6.55;;;1.80;95.40;;;;;;5030160;28;20037;-74
2021/01/07 00:31:02;;;;;;;9.55;5.50;;;1.70;95.60;;;;;;5028883;28;20043;-74
2021/01/07 00:33:27;;;;;;;11.02;6.35;;;1.70;95.50;;;;;;5024126;28;20036;-74
2021/01/07 00:35:53;;;;;;;9.85;5.95;;;1.70;95.50;;;;;;5045121;28;20056;-74
2021/01/07 00:38:19;;;;;;;10.77;6.72;;;1.70;95.50;;;;;;5027397;28;20136;-74
2021/01/07 00:40:44;;;;;;;11.98;7.00;;;1.70;95.50;;;;;;5027199;28;20400;-75
2021/01/07 00:43:10;;;;;;;11.18;6.35;;;1.70;95.50;;;;;;5013202;28;20530;-75
2021/01/07 00:45:36;;;;;;;10.10;5.82;;;1.70;95.60;;;;;;5028432;28;20477;-74
2021/01/07 00:48:01;;;;;;;10.40;5.63;;;1.70;95.50;;;;;;5029321;28;20117;-74
2021/01/07 00:50:27;;;;;;;11.00;6.07;;;1.70;95.50;;;;;;5029241;28;20484;-75
2021/01/07 00:52:53;;;;;;;10.27;6.18;;;1.80;95.50;;;;;;5012031;28;20033;-74
2021/01/07 00:55:19;;;;;;;11.05;6.55;;;1.70;95.60;;;;;;5029594;28;20064;-74
2021/01/07 00:57:44;;;;;;;10.27;6.28;;;1.70;95.80;;;;;;5029594;28;20057;-74
2021/01/07 01:00:14;;;;;;;11.45;6.20;;;1.70;95.50;;;;;;5029900;28;20037;-74
2021/01/07 01:02:40;;;;;;;9.75;5.68;;;1.70;95.70;;;;;;5028065;28;20028;-74
2021/01/07 01:05:07;;;;;;;11.02;6.22;;;1.70;95.90;;;;;;5028855;28;20025;-74
2021/01/07 01:07:33;;;;;;;10.93;6.30;;;1.70;95.80;;;;;;5011960;28;20044;-74
2021/01/07 01:09:59;;;;;;;10.13;6.22;;;1.70;95.70;;;;;;5028202;28;20662;-74
2021/01/07 01:12:24;;;;;;;11.38;5.60;;;1.70;95.80;;;;;;5012437;28;20021;-76
2021/01/07 01:14:50;;;;;;;10.05;6.18;;;1.60;95.80;;;;;;5026760;28;20026;-75
2021/01/07 01:17:16;;;;;;;10.13;5.60;;;1.60;95.80;;;;;;5026474;28;20033;-75
2021/01/07 01:19:42;;;;;;;9.80;5.50;;;1.70;95.80;;;;;;5028135;28;20484;-75
2021/01/07 01:22:09;;;;;;;11.35;5.90;;;1.70;95.70;;;;;;5012398;28;20051;-75
2021/01/07 01:24:34;;;;;;;11.68;6.03;;;1.70;95.80;;;;;;5027948;28;20065;-75
2021/01/07 01:27:01;;;;;;;9.10;5.63;;;1.70;95.90;;;;;;5011639;28;20566;-75
2021/01/07 01:29:27;;;;;;;9.13;5.10;;;1.70;95.90;;;;;;5028510;28;20490;-75
2021/01/07 01:31:53;;;;;;;9.63;5.50;;;1.60;95.80;;;;;;5027410;28;20021;-75
2021/01/07 01:34:20;;;;;;;10.80;5.90;;;1.70;96.00;;;;;;5035771;28;20018;-74
2021/01/07 01:36:45;;;;;;;11.27;6.47;;;1.70;95.90;;;;;;5026480;28;20036;-75
2021/01/07 01:39:11;;;;;;;9.48;5.72;;;1.60;96.00;;;;;;5026546;28;20030;-75
2021/01/07 01:41:48;;;;;;;9.93;5.70;;;1.70;95.80;;;;;;5011928;28;20033;-75
2021/01/07 01:44:15;;;;;;;9.02;5.20;;;1.60;95.90;;;;;;5011563;28;20052;-75
2021/01/07 01:46:41;;;;;;;8.48;5.10;;;1.60;96.00;;;;;;5010386;28;20041;-75
2021/01/07 01:49:08;;;;;;;9.48;5.20;;;1.60;96.10;;;;;;5027694;28;20037;-75
2021/01/07 01:51:35;;;;;;;9.13;5.53;;;1.60;96.20;;;;;;5025051;28;20025;-75
2021/01/07 01:54:02;;;;;;;9.27;5.43;;;1.60;96.20;;;;;;5028148;28;20037;-75
2021/01/07 01:56:28;;;;;;;9.25;4.97;;;1.60;96.10;;;;;;5029052;28;20021;-75
2021/01/07 01:58:54;;;;;;;9.38;5.15;;;1.60;96.20;;;;;;5027466;28;20029;-75
2021/01/07 02:01:20;;;;;;;8.48;4.43;;;1.60;96.20;;;;;;5026837;28;20385;-75
2021/01/07 02:03:49;;;;;;;7.97;4.43;;;1.60;96.00;;;;;;5028302;28;20029;-75
2021/01/07 02:06:17;;;;;;;8.55;4.68;;;1.70;96.00;;;;;;5011610;28;20541;-75
2021/01/07 02:08:44;;;;;;;8.77;5.03;;;1.60;96.10;;;;;;5009792;28;20029;-75
2021/01/07 02:11:15;;;;;;;8.05;4.65;;;1.70;96.10;;;;;;5027014;28;20199;-75
2021/01/07 02:13:45;;;;;;;7.07;4.18;;;1.70;96.10;;;;;;5027879;28;20040;-75
2021/01/07 02:16:11;;;;;;;8.15;4.43;;;1.60;96.00;;;;;;5010510;28;20147;-75
2021/01/07 02:18:36;;;;;;;6.80;4.20;;;1.70;96.00;;;;;;5028005;28;20080;-74
2021/01/07 02:21:03;;;;;;;6.53;3.95;;;1.70;96.10;;;;;;5027013;28;20030;-75
2021/01/07 02:23:29;;;;;;;7.25;4.18;;;1.60;96.10;;;;;;5024947;28;20025;-75
2021/01/07 02:25:55;;;;;;;6.45;3.83;;;1.70;96.20;;;;;;5009921;28;20504;-75
2021/01/07 02:28:23;;;;;;;7.78;4.18;;;1.70;96.00;;;;;;5027673;28;20045;-75
2021/01/07 02:30:49;;;;;;;7.18;3.85;;;1.60;96.00;;;;;;5009745;28;20028;-75
2021/01/07 02:33:15;;;;;;;7.63;3.63;;;1.70;96.00;;;;;;5026867;28;20481;-75
2021/01/07 02:35:40;;;;;;;6.90;3.88;;;1.60;96.00;;;;;;5024902;28;20040;-75
2021/01/07 02:38:06;;;;;;;8.55;4.10;;;1.60;96.20;;;;;;5026588;28;20029;-75
2021/01/07 02:40:33;;;;;;;6.90;3.85;;;1.60;96.30;;;;;;5009657;28;20555;-75
2021/01/07 02:43:02;;;;;;;7.90;4.10;;;1.60;96.30;;;;;;5027499;28;20029;-75
2021/01/07 02:45:28;;;;;;;6.32;3.45;;;1.60;96.20;;;;;;5025320;28;20061;-75
2021/01/07 02:47:53;;;;;;;7.40;3.70;;;1.60;96.20;;;;;;5010220;28;20103;-75
2021/01/07 02:50:19;;;;;;;6.60;3.53;;;1.60;96.20;;;;;;5027774;28;20388;-75
2021/01/07 02:52:54;;;;;;;6.38;3.35;;;1.60;96.30;;;;;;5026723;28;20022;-75
2021/01/07 02:55:19;;;;;;;7.35;3.55;;;1.70;96.20;;;;;;5008718;28;20022;-74
2021/01/07 02:57:45;;;;;;;6.97;4.32;;;1.70;96.10;;;;;;5010105;28;20547;-75
2021/01/07 03:00:11;;;;;;;6.53;3.80;;;1.60;96.20;;;;;;5026975;28;20266;-75
2021/01/07 03:02:37;;;;;;;6.95;3.83;;;1.50;96.20;;;;;;5030072;28;20032;-75
2021/01/07 03:05:03;;;;;;;6.38;3.75;;;1.50;96.30;;;;;;5037454;28;20560;-75
2021/01/07 03:07:28;;;;;;;7.43;3.72;;;1.60;96.30;;;;;;5030434;28;20102;-75
2021/01/07 03:09:54;;;;;;;7.60;4.15;;;1.60;96.30;;;;;;5029728;28;20029;-75
2021/01/07 03:12:19;;;;;;;7.20;4.38;;;1.60;96.20;;;;;;5013622;28;20057;-75
2021/01/07 03:14:46;;;;;;;8.23;4.78;;;1.60;96.30;;;;;;5031800;28;20401;-75
2021/01/07 03:17:13;;;;;;;8.02;4.60;;;1.60;96.30;;;;;;5033252;28;20522;-75
2021/01/07 03:19:39;;;;;;;11.05;4.93;;;1.60;96.30;;;;;;5013467;28;20045;-74
2021/01/07 03:22:05;;;;;;;8.60;4.75;;;1.60;96.40;;;;;;5030555;28;20025;-75
2021/01/07 03:24:36;;;;;;;11.77;5.82;;;1.50;96.50;;;;;;5029833;28;20040;-75
2021/01/07 03:27:01;;;;;;;8.93;5.32;;;1.50;96.50;;;;;;5013296;28;20025;-75
2021/01/07 03:29:27;;;;;;;11.00;5.57;;;1.60;96.50;;;;;;5030246;28;20095;-75
2021/01/07 03:31:54;;;;;;;10.95;5.75;;;1.60;96.60;;;;;;5029792;28;20069;-75
2021/01/07 03:34:19;;;;;;;10.35;5.82;;;1.60;96.60;;;;;;5030495;28;20071;-75
2021/01/07 03:36:45;;;;;;;11.30;5.72;;;1.60;96.50;;;;;;5029021;28;20021;-75
2021/01/07 03:39:11;;;;;;;11.23;5.95;;;1.60;96.50;;;;;;5029558;28;20041;-75
2021/01/07 03:41:37;;;;;;;10.68;6.15;;;1.60;96.50;;;;;;5030768;28;20036;-74
2021/01/07 03:44:04;;;;;;;10.60;5.70;;;1.50;96.40;;;;;;5028892;28;20033;-75
2021/01/07 03:46:30;;;;;;;10.93;5.90;;;1.50;96.50;;;;;;5029895;28;20030;-75
2021/01/07 03:48:56;;;;;;;11.50;5.40;;;1.60;96.50;;;;;;5030879;28;20044;-75
2021/01/07 03:51:22;;;;;;;13.90;6.32;;;1.50;96.60;;;;;;5029774;28;20033;-74
2021/01/07 03:53:47;;;;;;;10.48;5.60;;;1.50;96.70;;;;;;5013367;28;20029;-75
2021/01/07 03:56:13;;;;;;;11.57;6.07;;;1.50;96.60;;;;;;5028317;28;20116;-75
2021/01/07 03:58:39;;;;;;;9.57;5.32;;;1.50;96.60;;;;;;5011430;28;20031;-75
2021/01/07 04:01:05;;;;;;;8.65;4.95;;;1.50;96.50;;;;;;5028868;28;20029;-75
2021/01/07 04:03:30;;;;;;;11.27;5.68;;;1.60;96.50;;;;;;5030863;28;20065;-75
2021/01/07 04:05:56;;;;;;;10.70;5.60;;;1.60;96.40;;;;;;5032132;28;20037;-75
2021/01/07 04:08:22;;;;;;;10.93;5.75;;;1.60;96.30;;;;;;5027640;28;20025;-74
2021/01/07 04:10:48;;;;;;;9.18;5.10;;;1.60;96.40;;;;;;5028866;28;20048;-75
2021/01/07 04:13:13;;;;;;;12.18;6.10;;;1.60;96.40;;;;;;5029404;28;20083;-75
2021/01/07 04:15:39;;;;;;;10.38;5.15;;;1.60;96.50;;;;;;5012392;28;20029;-75
2021/01/07 04:18:05;;;;;;;10.90;5.60;;;1.60;96.60;;;;;;5030232;28;20029;-75
2021/01/07 04:20:31;;;;;;;10.30;5.50;;;1.60;96.60;;;;;;5028150;28;20041;-75
2021/01/07 04:22:56;;;;;;;10.20;5.15;;;1.50;96.70;;;;;;5028460;28;20033;-74
2021/01/07 04:25:22;;;;;;;9.80;5.22;;;1.60;96.70;;;;;;5011907;28;20087;-75
2021/01/07 04:27:48;;;;;;;11.55;5.72;;;1.50;96.70;;;;;;5012671;28;20397;-74
2021/01/07 04:30:14;;;;;;;10.23;5.57;;;1.60;96.70;;;;;;5027133;28;20079;-75
2021/01/07 04:32:39;;;;;;;11.50;5.55;;;1.60;96.80;;;;;;5029725;28;20024;-75
2021/01/07 04:35:06;;;;;;;12.63;6.07;;;1.50;96.70;;;;;;5012882;28;20025;-75
2021/01/07 04:37:32;;;;;;;15.10;6.45;;;1.50;96.80;;;;;;5028501;28;20025;-74
2021/01/07 04:39:58;;;;;;;12.02;5.47;;;1.40;96.80;;;;;;5025720;28;20457;-75
2021/01/07 04:42:24;;;;;;;16.10;6.85;;;1.50;97.00;;;;;;5029633;28;20123;-75
2021/01/07 04:44:51;;;;;;;12.40;5.97;;;1.50;96.90;;;;;;5012274;28;20041;-75
2021/01/07 04:47:17;;;;;;;11.43;5.68;;;1.50;96.90;;;;;;5028789;28;20460;-75
2021/01/07 04:49:43;;;;;;;12.70;6.05;;;1.50;97.10;;;;;;5029046;28;20035;-75
2021/01/07 04:52:08;;;;;;;12.52;5.80;;;1.50;97.10;;;;;;5029020;28;20041;-75
2021/01/07 04:54:34;;;;;;;12.32;6.05;;;1.50;97.00;;;;;;5028482;28;20613;-75
2021/01/07 04:57:01;;;;;;;11.93;5.47;;;1.50;96.90;;;;;;5028508;28;20036;-75
2021/01/07 04:59:27;;;;;;;14.02;6.25;;;1.50;96.80;;;;;;5027499;28;20042;-75
2021/01/07 05:01:53;;;;;;;11.57;5.50;;;1.50;96.90;;;;;;5024309;28;20406;-74
2021/01/07 05:04:18;;;;;;;12.27;5.85;;;1.50;96.80;;;;;;5027305;28;20025;-75
2021/01/07 05:06:46;;;;;;;10.30;5.38;;;1.60;96.80;;;;;;5028570;28;20121;-75
2021/01/07 05:09:11;;;;;;;10.98;5.25;;;1.50;96.80;;;;;;5029409;28;20021;-74
2021/01/07 05:11:37;;;;;;;10.18;5.32;;;1.50;96.80;;;;;;5031270;28;20516;-75
2021/01/07 05:14:08;;;;;;;10.82;5.53;;;1.50;96.90;;;;;;5013254;28;20057;-74
2021/01/07 05:16:34;;;;;;;12.13;4.78;;;1.50;96.90;;;;;;5025405;28;20117;-75
2021/01/07 05:19:06;;;;;;;10.68;5.05;;;1.50;96.90;;;;;;5030742;28;20578;-74
2021/01/07 05:21:32;;;;;;;11.07;4.45;;;1.50;96.90;;;;;;5011622;28;20522;-74
2021/01/07 05:23:59;;;;;;;9.18;4.60;;;1.50;97.00;;;;;;5028592;28;20032;-75
2021/01/07 05:26:25;;;;;;;9.68;5.00;;;1.50;97.00;;;;;;5026860;28;20025;-75
2021/01/07 05:28:53;;;;;;;11.23;5.38;;;1.60;96.90;;;;;;5012425;28;20057;-74
2021/01/07 05:31:27;;;;;;;11.18;5.28;;;1.50;96.80;;;;;;5028177;28;20049;-74
2021/01/07 05:33:55;;;;;;;11.27;5.22;;;1.50;96.90;;;;;;5030079;28;20517;-75
2021/01/07 05:36:26;;;;;;;13.05;5.43;;;1.50;97.00;;;;;;5030145;28;20299;-75
2021/01/07 05:38:57;;;;;;;12.93;5.57;;;1.50;97.10;;;;;;5013207;28;20366;-75
2021/01/07 05:41:25;;;;;;;13.02;5.43;;;1.50;97.20;;;;;;5026283;28;20025;-75
2021/01/07 05:44:12;;;;;;;13.77;5.65;;;1.50;97.10;;;;;;5014620;28;20444;-75
2021/01/07 05:46:37;;;;;;;12.65;5.50;;;1.50;97.20;;;;;;5011475;28;20113;-74
2021/01/07 05:49:03;;;;;;;11.40;5.50;;;1.50;97.10;;;;;;5013720;28;20108;-75
2021/01/07 05:51:30;;;;;;;12.73;5.22;;;1.50;97.10;;;;;;5028472;28;20103;-74
2021/01/07 05:53:58;;;;;;;9.50;4.88;;;1.60;97.20;;;;;;5030988;28;20025;-75
2021/01/07 05:56:25;;;;;;;10.63;4.75;;;1.60;97.10;;;;;;5030765;28;20076;-75
2021/01/07 05:58:52;;;;;;;11.57;5.10;;;1.60;97.10;;;;;;5013612;28;20033;-75
2021/01/07 06:01:23;;;;;;;11.52;5.15;;;1.60;97.00;;;;;;5025930;28;20026;-74
2021/01/07 06:03:53;;;;;;;10.23;5.17;;;1.60;97.10;;;;;;5029206;28;20025;-74
2021/01/07 06:06:23;;;;;;;11.35;4.60;;;1.60;97.00;;;;;;5031773;28;20044;-74
2021/01/07 06:08:54;;;;;;;9.35;4.60;;;1.60;97.00;;;;;;5045811;28;20029;-75
2021/01/07 06:11:22;;;;;;;12.80;5.10;;;1.60;96.80;;;;;;5029888;28;20075;-74
2021/01/07 06:13:49;;;;;;;11.15;5.53;;;1.60;97.00;;;;;;5030171;28;20055;-75
2021/01/07 06:16:23;;;;;;;10.40;4.93;;;1.60;96.90;;;;;;5026462;28;20120;-74
2021/01/07 06:18:49;;;;;;;11.30;5.38;;;1.60;96.90;;;;;;5009666;28;20061;-75
2021/01/07 06:21:16;;;;;;;11.00;5.35;;;1.60;97.00;;;;;;5028943;28;20057;-74
2021/01/07 06:23:47;;;;;;;13.15;5.47;;;1.60;96.90;;;;;;5027277;28;20151;-76
2021/01/07 06:26:27;;;;;;;9.03;4.20;;;1.60;96.90;;;;;;5027017;28;20018;-74
2021/01/07 06:28:58;;;;;;;10.70;4.93;;;1.60;96.90;;;;;;5028580;28;20053;-74
2021/01/07 06:31:36;;;;;;;11.15;5.00;;;1.60;97.00;;;;;;5028920;28;20037;-74
2021/01/07 06:34:05;;;;;;;9.15;4.25;;;1.50;96.90;;;;;;5012063;28;20485;-74
2021/01/07 06:36:50;;;;;;;13.23;5.32;;;1.50;97.00;;;;;;5029670;28;20025;-74
2021/01/07 06:39:21;;;;;;;9.75;4.60;;;1.50;97.10;;;;;;5027230;28;20025;-75
2021/01/07 06:42:19;;;;;;;9.63;4.80;;;1.60;97.10;;;;;;5033151;28;20136;-74
2021/01/07 06:44:45;;;;;;;8.38;4.32;;;1.50;97.10;;;;;;5025869;28;20065;-75
2021/01/07 06:47:19;;;;;;;13.38;5.53;;;1.50;97.10;;;;;;5031096;28;20108;-75
2021/01/07 06:49:45;;;;;;;11.82;5.38;;;1.50;97.10;;;;;;5028222;28;20028;-75
2021/01/07 06:52:11;;;;;;;10.07;5.18;;;1.50;97.10;;;;;;5013132;28;20028;-76
2021/01/07 06:54:44;;;;;;;11.77;5.15;;;1.60;97.10;;;;;;5029748;28;20120;-74
2021/01/07 06:57:13;;;;;;;11.80;5.22;;;1.60;97.10;;;;;;5010399;28;20061;-75
2021/01/07 07:00:03;;;;;;;9.77;5.05;;;1.80;97.50;;;;;;5011547;28;20037;-73
2021/01/07 07:02:29;;;;;;;7.90;4.00;;;1.80;97.20;;;;;;5054110;28;20040;-75
2021/01/07 07:05:10;;;;;;;10.00;4.63;;;1.70;97.10;;;;;;5026944;28;20036;-75
2021/01/07 07:07:38;;;;;;;10.57;5.40;;;1.60;97.00;;;;;;5028595;28;20100;-75
2021/01/07 07:10:22;;;;;;;11.50;5.30;;;1.70;97.00;;;;;;5008022;28;20026;-75
2021/01/07 07:12:50;;;;;;;9.13;4.32;;;1.70;97.00;;;;;;5027823;28;20026;-74
2021/01/07 07:15:17;;;;;;;9.48;4.45;;;1.60;97.00;;;;;;5026885;28;20395;-76
2021/01/07 07:17:45;;;;;;;10.07;4.82;;;1.60;97.00;;;;;;5028517;28;20112;-75
2021/01/07 07:20:15;;;;;;;10.02;5.25;;;1.60;97.00;;;;;;5012021;28;20546;-74
2021/01/07 07:22:44;;;;;;;11.02;5.38;;;1.70;97.10;;;;;;5012408;28;20392;-73
2021/01/07 07:25:12;;;;;;;13.07;5.38;;;1.70;96.90;;;;;;5027237;28;20029;-73
2021/01/07 07:28:04;;;;;;;12.23;5.05;;;1.70;96.90;;;;;;5029686;28;20029;-74
2021/01/07 07:30:35;;;;;;;15.18;5.60;;;1.60;97.00;;;;;;5028607;28;20033;-74
2021/01/07 07:33:01;;;;;;;13.45;5.40;;;1.60;97.00;;;;;;5047525;28;20037;-74
2021/01/07 07:35:30;;;;;;;19.65;7.18;;;1.60;97.10;;;;;;5029241;28;20040;-73
2021/01/07 07:37:59;;;;;;;10.18;5.45;;;1.60;97.10;;;;;;5029343;28;20489;-73
2021/01/07 07:40:36;;;;;;;11.80;5.82;;;1.60;97.10;;;;;;5024785;28;20111;-73
2021/01/07 07:43:02;;;;;;;16.77;7.63;;;1.70;97.00;;;;;;5012996;28;20025;-74
2021/01/07 07:45:30;;;;;;;14.23;7.05;;;1.60;97.10;;;;;;5027792;28;20022;-74
2021/01/07 07:47:56;;;;;;;10.90;5.50;;;1.60;97.10;;;;;;5027842;28;20080;-73
2021/01/07 07:50:30;;;;;;;13.50;6.75;;;1.60;97.10;;;;;;5033715;28;20485;-74
2021/01/07 07:53:05;;;;;;;12.70;6.53;;;1.70;97.10;;;;;;5034306;28;20411;-73
2021/01/07 07:55:39;;;;;;;13.75;6.43;;;1.70;96.90;;;;;;5032649;28;20405;-74
2021/01/07 07:58:15;;;;;;;17.40;7.30;;;1.70;97.00;;;;;;5014775;28;20025;-74
2021/01/07 08:00:54;;;;;;;18.40;8.10;;;1.70;97.00;;;;;;5030114;28;20041;-74
2021/01/07 08:03:24;;;;;;;13.80;6.65;;;1.70;97.00;;;;;;5033381;28;20030;-74
2021/01/07 08:05:50;;;;;;;12.77;6.10;;;1.70;96.90;;;;;;5027134;28;20033;-73
2021/01/07 08:08:42;;;;;;;13.20;6.50;;;1.70;96.90;;;;;;5017016;28;20549;-73
2021/01/07 08:11:08;;;;;;;16.40;6.53;;;1.70;97.00;;;;;;5025593;28;20811;-74
2021/01/07 08:13:33;;;;;;;12.05;6.30;;;1.70;97.10;;;;;;5027818;28;20117;-74
2021/01/07 08:15:59;;;;;;;17.60;7.18;;;1.80;97.60;;;;;;5031948;28;20052;-74
2021/01/07 08:18:30;;;;;;;16.08;6.45;;;1.80;97.50;;;;;;5015183;28;20051;-74
2021/01/07 08:21:08;;;;;;;14.25;6.65;;;1.80;97.30;;;;;;5031146;28;20025;-74
2021/01/07 08:23:36;;;;;;;18.80;6.88;;;1.80;97.20;;;;;;5015538;28;20041;-74
2021/01/07 08:26:03;;;;;;;17.05;6.78;;;1.80;97.20;;;;;;5032090;28;20030;-74
2021/01/07 08:28:42;;;;;;;16.05;6.78;;;1.80;97.10;;;;;;5031449;28;20036;-73
2021/01/07 08:31:13;;;;;;;13.25;6.65;;;1.80;97.00;;;;;;5014294;28;20026;-74
2021/01/07 08:33:39;;;;;;;12.80;6.97;;;1.80;97.10;;;;;;5038990;28;20021;-73
2021/01/07 08:36:09;;;;;;;13.70;5.68;;;1.70;97.10;;;;;;5025240;28;20030;-72
2021/01/07 08:38:36;;;;;;;14.20;6.25;;;1.70;97.10;;;;;;5032198;28;20025;-73
2021/01/07 08:41:16;;;;;;;12.95;6.30;;;1.80;97.10;;;;;;5015845;28;20597;-75
2021/01/07 08:43:43;;;;;;;16.92;6.15;;;1.80;97.10;;;;;;5036478;28;20120;-74
2021/01/07 08:46:18;;;;;;;15.05;6.32;;;1.80;97.10;;;;;;5031219;28;20116;-74
2021/01/07 08:48:45;;;;;;;14.82;6.60;;;1.80;97.20;;;;;;5013394;28;20033;-74
2021/01/07 08:51:20;;;;;;;14.25;6.90;;;1.80;97.20;;;;;;5029803;28;20021;-74
2021/01/07 08:53:48;;;;;;;13.35;6.68;;;1.80;97.20;;;;;;5029647;28;20033;-75
2021/01/07 08:56:32;;;;;;;13.73;7.03;;;1.90;97.20;;;;;;5030270;28;20132;-73
2021/01/07 08:59:19;;;;;;;13.40;6.05;;;1.90;97.20;;;;;;5028845;28;20030;-75
2021/01/07 09:01:49;;;;;;;15.10;6.50;;;1.90;97.20;;;;;;5009192;28;20171;-73
2021/01/07 09:04:28;;;;;;;13.90;6.15;;;1.90;97.20;;;;;;5030582;28;20537;-74
2021/01/07 09:06:54;;;;;;;12.65;6.32;;;1.80;97.30;;;;;;5029250;28;20563;-74
2021/01/07 09:09:20;;;;;;;14.88;5.47;;;1.80;97.20;;;;;;5027216;28;20481;-74
2021/01/07 09:11:46;;;;;;;14.32;6.28;;;1.80;97.10;;;;;;5028371;28;20033;-73
2021/01/07 09:14:12;;;;;;;13.63;5.90;;;1.90;97.10;;;;;;5027495;28;20498;-74
2021/01/07 09:16:38;;;;;;;14.85;6.72;;;1.80;97.20;;;;;;5028925;28;20163;-73
2021/01/07 09:19:04;;;;;;;19.42;7.38;;;1.90;97.10;;;;;;5030320;28;20489;-74
2021/01/07 09:21:33;;;;;;;26.27;10.00;;;1.90;97.30;;;;;;5029566;28;20057;-72
2021/01/07 09:23:59;;;;;;;14.27;6.60;;;1.90;97.40;;;;;;5028920;28;20021;-73
2021/01/07 09:26:29;;;;;;;13.75;6.15;;;1.90;97.50;;;;;;5013715;28;20036;-73
2021/01/07 09:28:55;;;;;;;15.60;6.60;;;1.90;97.50;;;;;;5010901;28;20032;-73
2021/01/07 09:31:20;;;;;;;12.35;6.32;;;2.00;97.40;;;;;;5042775;28;20044;-73
2021/01/07 09:33:46;;;;;;;14.32;6.43;;;2.00;97.20;;;;;;5028577;28;20104;-72
2021/01/07 09:36:12;;;;;;;12.25;5.63;;;2.00;97.10;;;;;;5028113;28;20049;-74
2021/01/07 09:38:37;;;;;;;13.27;6.10;;;2.00;97.00;;;;;;5030054;28;20029;-74
2021/01/07 09:41:03;;;;;;;14.77;6.50;;;2.10;97.00;;;;;;5012606;28;20025;-74
2021/01/07 09:43:33;;;;;;;12.73;6.32;;;2.10;97.10;;;;;;5029066;28;20033;-73
2021/01/07 09:45:59;;;;;;;13.77;6.03;;;2.10;97.00;;;;;;5029591;28;20108;-72
2021/01/07 09:48:25;;;;;;;12.85;6.20;;;2.10;96.90;;;;;;5010819;28;20120;-73
2021/01/07 09:50:51;;;;;;;9.88;5.13;;;2.20;96.90;;;;;;5026803;28;20037;-73
2021/01/07 09:53:17;;;;;;;14.25;6.38;;;2.20;96.80;;;;;;5046371;28;20052;-74
2021/01/07 09:55:43;;;;;;;15.05;6.85;;;2.20;96.60;;;;;;5030233;28;20036;-72
2021/01/07 09:58:09;;;;;;;36.70;15.25;;;2.20;96.70;;;;;;5028268;28;20112;-73
2021/01/07 10:00:35;;;;;;;16.58;6.80;;;2.20;96.70;;;;;;5013262;28;20076;-75
2021/01/07 10:03:01;;;;;;;16.55;6.97;;;2.20;96.70;;;;;;5029794;28;20037;-74
2021/01/07 10:05:27;;;;;;;12.38;6.05;;;2.20;96.80;;;;;;5028571;28;20072;-73
2021/01/07 10:07:54;;;;;;;14.60;6.97;;;2.20;96.90;;;;;;5012578;28;20032;-74
2021/01/07 10:10:20;;;;;;;11.43;6.65;;;2.20;96.90;;;;;;5041705;28;20903;-73
2021/01/07 10:12:49;;;;;;;12.30;6.53;;;2.20;97.00;;;;;;5027500;28;20096;-73
2021/01/07 10:15:15;;;;;;;13.95;5.88;;;2.20;96.60;;;;;;5024895;28;20036;-75
2021/01/07 10:17:40;;;;;;;11.77;5.78;;;2.20;96.60;;;;;;5022860;28;20026;-75
2021/01/07 10:20:07;;;;;;;12.00;5.53;;;2.20;96.70;;;;;;5023898;28;20037;-74
2021/01/07 10:22:37;;;;;;;11.68;5.75;;;2.20;96.80;;;;;;5022176;28;20033;-76
2021/01/07 10:25:06;;;;;;;11.55;5.38;;;2.20;96.80;;;;;;5005470;28;20025;-74
2021/01/07 10:27:32;;;;;;;10.60;5.35;;;2.20;96.70;;;;;;5025472;28;20489;-74
2021/01/07 10:29:58;;;;;;;12.43;5.82;;;2.30;96.70;;;;;;5024703;28;20029;-74
2021/01/07 10:32:25;;;;;;;12.32;4.75;;;2.20;96.80;;;;;;5025369;28;20040;-74
2021/01/07 10:34:51;;;;;;;8.68;4.18;;;2.20;96.90;;;;;;5024466;28;20071;-75
2021/01/07 10:37:20;;;;;;;9.63;4.50;;;2.30;96.80;;;;;;5026781;28;20049;-75
2021/01/07 10:39:49;;;;;;;9.32;4.38;;;2.30;96.50;;;;;;5023747;28;20029;-74
2021/01/07 10:42:16;;;;;;;8.43;4.22;;;2.30;96.20;;;;;;5024979;28;20493;-75
2021/01/07 10:44:44;;;;;;;10.52;4.93;;;2.20;96.60;;;;;;5020869;28;20499;-76
2021/01/07 10:47:11;;;;;;;9.43;4.85;;;2.20;96.70;;;;;;5008848;28;20437;-75
2021/01/07 10:49:41;;;;;;;11.27;5.18;;;2.20;96.80;;;;;;5022049;28;20038;-76
2021/01/07 10:52:13;;;;;;;11.57;4.72;;;2.20;97.00;;;;;;5007805;28;20599;-75
2021/01/07 10:54:57;;;;;;;8.32;4.05;;;2.10;97.00;;;;;;5025642;28;20032;-76
2021/01/07 10:57:55;;;;;;;9.02;4.20;;;2.10;97.10;;;;;;5007112;28;20033;-75
2021/01/07 11:00:44;;;;;;;8.57;4.30;;;2.10;97.20;;;;;;5024682;28;20049;-75
2021/01/07 11:03:48;;;;;;;8.68;3.72;;;2.20;97.00;;;;;;5028339;28;20083;-77
2021/01/07 11:06:19;;;;;;;7.53;4.00;;;2.20;96.90;;;;;;5029792;28;20439;-75
2021/01/07 11:08:57;;;;;;;9.98;3.38;;;2.20;96.70;;;;;;5028641;28;20381;-76
2021/01/07 11:11:34;;;;;;;6.00;3.05;;;2.20;96.70;;;;;;5024856;28;20095;-74
2021/01/07 11:14:07;;;;;;;6.55;3.47;;;2.20;96.70;;;;;;5029397;28;20021;-74
2021/01/07 11:16:46;;;;;;;10.93;4.05;;;2.20;96.80;;;;;;5029875;28;20025;-75
2021/01/07 11:19:20;;;;;;;8.13;3.78;;;2.20;96.90;;;;;;5012341;28;20041;-74
2021/01/07 11:22:02;;;;;;;8.55;3.85;;;2.20;97.00;;;;;;5029300;28;20033;-74
2021/01/07 11:24:29;;;;;;;12.50;4.88;;;2.20;97.00;;;;;;5032030;28;20482;-74
2021/01/07 11:26:55;;;;;;;11.20;4.35;;;2.30;97.40;;;;;;5026428;28;20029;-73
2021/01/07 11:29:22;;;;;;;8.73;3.97;;;2.30;97.30;;;;;;5030647;28;20481;-74
2021/01/07 11:31:48;;;;;;;9.38;4.40;;;2.40;97.20;;;;;;5029036;28;21219;-75
2021/01/07 11:34:18;;;;;;;7.57;4.10;;;2.30;96.80;;;;;;5030568;28;20026;-76
2021/01/07 11:37:04;;;;;;;7.32;3.78;;;2.30;96.90;;;;;;5020049;28;20041;-75
2021/01/07 11:39:55;;;;;;;8.85;4.40;;;2.30;97.00;;;;;;5030169;28;20033;-75
2021/01/07 11:42:36;;;;;;;8.30;3.80;;;2.30;96.60;;;;;;5029390;28;20041;-75
2021/01/07 11:45:19;;;;;;;8.15;3.72;;;2.30;96.60;;;;;;5030010;28;20041;-76
2021/01/07 11:47:55;;;;;;;8.77;3.88;;;2.20;96.60;;;;;;5013821;28;20923;-76
2021/01/07 11:50:25;;;;;;;11.05;4.57;;;2.20;96.70;;;;;;5028147;28;20066;-75
2021/01/07 11:52:52;;;;;;;13.02;5.70;;;2.20;96.80;;;;;;5029438;28;20370;-75
2021/01/07 11:55:19;;;;;;;14.95;6.60;;;2.10;97.00;;;;;;5032564;28;20481;-73
2021/01/07 11:57:46;;;;;;;14.93;6.53;;;2.10;97.10;;;;;;5046502;28;20481;-75
2021/01/07 12:00:15;;;;;;;13.23;5.88;;;2.20;97.00;;;;;;5011254;28;20056;-77
2021/01/07 12:02:42;;;;;;;11.07;5.38;;;2.20;96.80;;;;;;5015668;28;20616;-74
2021/01/07 12:05:11;;;;;;;13.05;6.65;;;2.20;96.50;;;;;;5029925;28;20060;-74
2021/01/07 12:08:07;;;;;;;18.15;8.07;;;2.20;96.80;;;;;;5031701;28;20053;-75
2021/01/07 12:10:40;;;;;;;19.05;8.27;;;2.20;96.80;;;;;;5025793;28;20091;-74
2021/01/07 12:13:29;;;;;;;16.02;7.43;;;2.20;96.80;;;;;;5032343;28;20021;-74
2021/01/07 12:16:00;;;;;;;15.52;8.02;;;2.20;97.10;;;;;;5014058;28;20033;-75
2021/01/07 12:18:27;;;;;;;18.43;8.17;;;2.20;97.20;;;;;;5023405;28;20389;-74
2021/01/07 12:20:53;;;;;;;20.58;9.30;;;2.20;96.80;;;;;;5011734;28;20120;-74
2021/01/07 12:23:19;;;;;;;15.73;8.25;;;2.20;97.00;;;;;;5032336;28;20032;-75
2021/01/07 12:25:51;;;;;;;15.98;7.93;;;2.20;96.70;;;;;;5030843;28;20025;-74
2021/01/07 12:28:19;;;;;;;15.32;6.95;;;2.20;96.70;;;;;;5046860;28;20095;-75
2021/01/07 12:30:47;;;;;;;11.40;6.18;;;2.20;96.80;;;;;;5029979;28;20025;-73
2021/01/07 12:33:37;;;;;;;14.40;6.75;;;2.20;96.90;;;;;;5031994;28;20053;-74
2021/01/07 12:36:13;;;;;;;17.15;7.07;;;2.20;96.80;;;;;;5021858;28;20053;-75
2021/01/07 12:39:22;;;;;;;489.42;247.63;;;2.30;96.90;;;;;;5012056;28;20033;-75
2021/01/07 12:41:51;;;;;;;83.97;41.88;;;2.30;96.70;;;;;;4976790;28;20062;-74
2021/01/07 12:44:22;;;;;;;21.95;11.55;;;2.30;96.90;;;;;;5020244;28;20045;-74
2021/01/07 12:46:54;;;;;;;20.17;9.73;;;2.30;96.90;;;;;;5015068;28;20485;-75
2021/01/07 12:49:20;;;;;;;19.77;8.25;;;2.30;97.10;;;;;;5029650;28;20065;-75
2021/01/07 12:51:47;;;;;;;18.63;9.13;;;2.30;96.90;;;;;;5028054;28;20068;-77
2021/01/07 12:54:16;;;;;;;14.40;7.80;;;2.30;96.80;;;;;;5015327;28;20044;-73
2021/01/07 12:57:06;;;;;;;16.95;8.55;;;2.30;96.80;;;;;;5031357;28;20026;-73
2021/01/07 12:59:39;;;;;;;13.30;6.80;;;2.30;96.90;;;;;;5031126;28;20099;-74
2021/01/07 13:02:19;;;;;;;16.10;6.57;;;2.30;96.70;;;;;;5031848;28;20048;-74